Mermaid Express — H9PV — position and weather

sailwx.info

Track history (hours):
 
Tides and Currents Weather Stations Pressure Air Temp Water Temp Dewpoint Dewpoint Depression Visibility Wind Speed Wind Dir Waves Ship Positions

Mermaid Express

Last reported at 2014-Sep-06 05:13 UTC. Time now 2014-Sep-16 05:00 UTC.
Position N 24°40' W 079°48'.
Warning: this ship's position is 9 days out of date.

Length 179 m; draft 7.5 m.

Type: Tanker. MMSI: 352866000.

Date/timePositionNaut miles runAvg speedWind from/ knotsBaromVisibWave heightAir tempDewpointWater temp
2014-Sep-06 05:13N 24°40' W 079°48'66 9.8
2014-Sep-05 22:32N 25°44' W 079°32'9 9.5
2014-Sep-05 21:33N 25°53' W 079°31'9 9.1
2014-Sep-05 20:33N 26°02' W 079°29'1010.2
2014-Sep-05 19:33N 26°09' W 079°20'13 0.7
2014-Sep-05 00:09N 26°17' W 079°09'912.6
2014-Sep-04 23:27N 26°11' W 079°16'1213.7
2014-Sep-04 22:33N 26°04' W 079°27'1515.1
2014-Sep-04 21:33N 25°50' W 079°34'15 1.5
2014-Sep-04 11:30N 25°47' W 079°50'8 8.7
2014-Sep-04 10:33N 25°55' W 079°50'9 9.4
2014-Sep-04 09:33N 26°03' W 079°57'9 8.8
2014-Sep-04 08:33N 26°06' W 080°06'1 0.8
2014-Sep-04 07:33N 26°05' W 080°07'0 0.0
2014-Sep-04 06:33N 26°05' W 080°07'0 0.0
2014-Sep-04 05:33N 26°05' W 080°07'0 0.0
2014-Sep-04 04:33N 26°05' W 080°07'0 0.0
2014-Sep-04 03:33N 26°05' W 080°07'0 0.0
2014-Sep-04 02:33N 26°05' W 080°07'0 0.0
2014-Sep-04 01:33N 26°05' W 080°07'0 0.0
2014-Sep-04 00:33N 26°05' W 080°07'0 0.0
2014-Sep-03 23:33N 26°05' W 080°07'0 0.0
2014-Sep-03 22:33N 26°05' W 080°07'0 0.0
2014-Sep-03 21:33N 26°05' W 080°07'0 0.0
2014-Sep-03 20:33N 26°05' W 080°07'0 0.0
2014-Sep-03 19:33N 26°05' W 080°07'0 0.0
2014-Sep-03 18:33N 26°05' W 080°07'0 0.0
2014-Sep-03 17:33N 26°05' W 080°07'0 0.0
2014-Sep-03 16:33N 26°05' W 080°07'0 0.0
2014-Sep-03 15:33N 26°05' W 080°07'0 0.0
2014-Sep-03 14:33N 26°05' W 080°07'0 0.0
2014-Sep-03 13:33N 26°05' W 080°07'0 0.0
2014-Sep-03 12:33N 26°05' W 080°07'0 0.0
2014-Sep-03 11:33N 26°05' W 080°07'0 0.0
2014-Sep-03 10:33N 26°05' W 080°07'0 0.0
2014-Sep-03 09:33N 26°05' W 080°07'0 0.0
2014-Sep-03 08:33N 26°05' W 080°07'0 0.0
2014-Sep-03 07:33N 26°05' W 080°07'0 0.0
2014-Sep-03 06:33N 26°05' W 080°07'0 0.0
2014-Sep-03 05:33N 26°05' W 080°07'1 0.8
2014-Sep-03 04:33N 26°06' W 080°06'3 3.2
2014-Sep-03 03:33N 26°07' W 080°03'1 1.1
2014-Sep-03 02:22N 26°07' W 080°05'0 0.0
2014-Sep-03 01:25N 26°07' W 080°05'0 0.1
2014-Sep-03 00:22N 26°07' W 080°05'0 0.1
2014-Sep-02 23:25N 26°07' W 080°04'0 0.0
2014-Sep-02 22:28N 26°07' W 080°05'0 0.0
2014-Sep-02 21:28N 26°07' W 080°05'0 0.0
2014-Sep-02 20:28N 26°07' W 080°05'0 0.0
2014-Sep-02 19:31N 26°07' W 080°05'0 0.0
2014-Sep-02 18:31N 26°07' W 080°05'0 0.1
2014-Sep-02 17:31N 26°07' W 080°05'0 0.1
2014-Sep-02 16:31N 26°07' W 080°05'0 0.0
2014-Sep-02 15:31N 26°07' W 080°04'0 0.0
2014-Sep-02 14:31N 26°07' W 080°05'0 0.0
2014-Sep-02 13:31N 26°07' W 080°04'0 0.0
2014-Sep-02 12:22N 26°07' W 080°05'0 0.0
2014-Sep-02 11:25N 26°07' W 080°05'0 0.0
2014-Sep-02 10:25N 26°07' W 080°05'0 0.0
2014-Sep-02 09:25N 26°07' W 080°05'0 0.0
2014-Sep-02 08:28N 26°07' W 080°04'0 0.0
2014-Sep-02 07:28N 26°07' W 080°04'0 0.0
2014-Sep-02 06:28N 26°07' W 080°04'0 0.0
2014-Sep-02 05:31N 26°07' W 080°05'0 0.0
2014-Sep-02 04:31N 26°07' W 080°05'0 0.0
2014-Sep-02 03:31N 26°07' W 080°05'0 0.0
2014-Sep-02 02:31N 26°07' W 080°04'0 0.0
2014-Sep-02 01:31N 26°07' W 080°04'0 0.0
2014-Sep-02 00:31N 26°07' W 080°04'0 0.3
2014-Sep-01 23:33N 26°07' W 080°04'1 1.1
2014-Sep-01 22:33N 26°07' W 080°04'2 1.6
2014-Sep-01 21:33N 26°09' W 080°02'2 2.1
2014-Sep-01 20:33N 26°07' W 080°02'5 4.8
2014-Sep-01 19:33N 26°04' W 079°57'1010.0
2014-Sep-01 18:33N 25°57' W 079°49'  
Track history (hours):
 
Tides and Currents Weather Stations Pressure Air Temp Water Temp Dewpoint Dewpoint Depression Visibility Wind Speed Wind Dir Waves Ship Positions

Mermaid Express

Last reported at 2014-Sep-06 05:13 UTC. Time now 2014-Sep-16 05:00 UTC.
Position N 24°40' W 079°48'.
Warning: this ship's position is 9 days out of date.

Length 179 m; draft 7.5 m.

Type: Tanker. MMSI: 352866000.

Date/timePositionNaut miles runAvg speedWind from/ knotsBaromVisibWave heightAir tempDewpointWater temp
2014-Sep-06 05:13N 24°40' W 079°48'66 9.8
2014-Sep-05 22:32N 25°44' W 079°32'9 9.5
2014-Sep-05 21:33N 25°53' W 079°31'9 9.1
2014-Sep-05 20:33N 26°02' W 079°29'1010.2
2014-Sep-05 19:33N 26°09' W 079°20'13 0.7
2014-Sep-05 00:09N 26°17' W 079°09'912.6
2014-Sep-04 23:27N 26°11' W 079°16'1213.7
2014-Sep-04 22:33N 26°04' W 079°27'1515.1
2014-Sep-04 21:33N 25°50' W 079°34'15 1.5
2014-Sep-04 11:30N 25°47' W 079°50'8 8.7
2014-Sep-04 10:33N 25°55' W 079°50'9 9.4
2014-Sep-04 09:33N 26°03' W 079°57'9 8.8
2014-Sep-04 08:33N 26°06' W 080°06'1 0.8
2014-Sep-04 07:33N 26°05' W 080°07'0 0.0
2014-Sep-04 06:33N 26°05' W 080°07'0 0.0
2014-Sep-04 05:33N 26°05' W 080°07'0 0.0
2014-Sep-04 04:33N 26°05' W 080°07'0 0.0
2014-Sep-04 03:33N 26°05' W 080°07'0 0.0
2014-Sep-04 02:33N 26°05' W 080°07'0 0.0
2014-Sep-04 01:33N 26°05' W 080°07'0 0.0
2014-Sep-04 00:33N 26°05' W 080°07'0 0.0
2014-Sep-03 23:33N 26°05' W 080°07'0 0.0
2014-Sep-03 22:33N 26°05' W 080°07'0 0.0
2014-Sep-03 21:33N 26°05' W 080°07'0 0.0
2014-Sep-03 20:33N 26°05' W 080°07'0 0.0
2014-Sep-03 19:33N 26°05' W 080°07'0 0.0
2014-Sep-03 18:33N 26°05' W 080°07'0 0.0
2014-Sep-03 17:33N 26°05' W 080°07'0 0.0
2014-Sep-03 16:33N 26°05' W 080°07'0 0.0
2014-Sep-03 15:33N 26°05' W 080°07'0 0.0
2014-Sep-03 14:33N 26°05' W 080°07'0 0.0
2014-Sep-03 13:33N 26°05' W 080°07'0 0.0
2014-Sep-03 12:33N 26°05' W 080°07'0 0.0
2014-Sep-03 11:33N 26°05' W 080°07'0 0.0
2014-Sep-03 10:33N 26°05' W 080°07'0 0.0
2014-Sep-03 09:33N 26°05' W 080°07'0 0.0
2014-Sep-03 08:33N 26°05' W 080°07'0 0.0
2014-Sep-03 07:33N 26°05' W 080°07'0 0.0
2014-Sep-03 06:33N 26°05' W 080°07'0 0.0
2014-Sep-03 05:33N 26°05' W 080°07'1 0.8
2014-Sep-03 04:33N 26°06' W 080°06'3 3.2
2014-Sep-03 03:33N 26°07' W 080°03'1 1.1
2014-Sep-03 02:22N 26°07' W 080°05'0 0.0
2014-Sep-03 01:25N 26°07' W 080°05'0 0.1
2014-Sep-03 00:22N 26°07' W 080°05'0 0.1
2014-Sep-02 23:25N 26°07' W 080°04'0 0.0
2014-Sep-02 22:28N 26°07' W 080°05'0 0.0
2014-Sep-02 21:28N 26°07' W 080°05'0 0.0
2014-Sep-02 20:28N 26°07' W 080°05'0 0.0
2014-Sep-02 19:31N 26°07' W 080°05'0 0.0
2014-Sep-02 18:31N 26°07' W 080°05'0 0.1
2014-Sep-02 17:31N 26°07' W 080°05'0 0.1
2014-Sep-02 16:31N 26°07' W 080°05'0 0.0
2014-Sep-02 15:31N 26°07' W 080°04'0 0.0
2014-Sep-02 14:31N 26°07' W 080°05'0 0.0
2014-Sep-02 13:31N 26°07' W 080°04'0 0.0
2014-Sep-02 12:22N 26°07' W 080°05'0 0.0
2014-Sep-02 11:25N 26°07' W 080°05'0 0.0
2014-Sep-02 10:25N 26°07' W 080°05'0 0.0
2014-Sep-02 09:25N 26°07' W 080°05'0 0.0
2014-Sep-02 08:28N 26°07' W 080°04'0 0.0
2014-Sep-02 07:28N 26°07' W 080°04'0 0.0
2014-Sep-02 06:28N 26°07' W 080°04'0 0.0
2014-Sep-02 05:31N 26°07' W 080°05'0 0.0
2014-Sep-02 04:31N 26°07' W 080°05'0 0.0
2014-Sep-02 03:31N 26°07' W 080°05'0 0.0
2014-Sep-02 02:31N 26°07' W 080°04'0 0.0
2014-Sep-02 01:31N 26°07' W 080°04'0 0.0
2014-Sep-02 00:31N 26°07' W 080°04'0 0.3
2014-Sep-01 23:33N 26°07' W 080°04'1 1.1
2014-Sep-01 22:33N 26°07' W 080°04'2 1.6
2014-Sep-01 21:33N 26°09' W 080°02'2 2.1
2014-Sep-01 20:33N 26°07' W 080°02'5 4.8
2014-Sep-01 19:33N 26°04' W 079°57'1010.0
2014-Sep-01 18:33N 25°57' W 079°49'  

Dump ship's entire track history